Latest Coastal Weather Observations for Whyalla

IDS60701

Issued at 12:15 am CST Thursday 17 April 2014 (issued every 10 minutes, with the page automatically refreshed every 10 minutes)

About coastal observations | Map of coastal stations | Coastal observations for SA | Marine services | Other Formats
Station Details ID: 018120 Name: WHYALLA AERO Lat: -33.05 Lon: 137.52 Height: 6.5 m
Data from the previous 72 hours. | See also: Recent months at Whyalla
Date/Time
CST
Temp

°C
Wind Pressure Rain
since 9am
mm
Weather Cloud Vis
km
Sea
Height
m
Swell
Dir
 
Speed
knots
Gust
knots
hPa Trend Height
m
Period
s
Dir
17/12:00am 12.8 W 0 0 1020.1 - 0.2 - - 10 - - - -
 
Date/Time
CST
Temp

°C
Wind Pressure Rain
since 9am
mm
Weather Cloud Vis
km
Sea
Height
m
Swell
Dir
 
Speed
knots
Gust
knots
hPa Trend Height
m
Period
s
Dir
16/11:30pm 13.7 W 2 3 1020.3 - 0.2 - - 10 - - - -
16/11:00pm 14.0 W 2 3 1020.5 - 0.2 - - 10 - - - -
16/10:30pm 14.5 W 3 3 1020.4 - 0.2 - - 10 - - - -
16/10:00pm 15.2 WSW 3 3 1020.3 - 0.2 - - 10 - - - -
16/09:30pm 15.5 SW 5 6 1020.2 - 0.2 - - 10 - - - -
16/09:00pm 15.8 SW 5 6 1019.8 - 0.2 - - 10 - - - -
16/08:30pm 15.8 SW 5 5 1019.8 - 0.2 - - 10 - - - -
16/08:00pm 16.2 SSW 9 11 1019.7 - 0.2 - - 10 - - - -
16/07:30pm 17.5 E 3 4 1019.2 - 0.2 - - 10 - - - -
16/07:00pm 18.2 SE 3 3 1019.0 - 0.2 - - 10 - - - -
16/06:30pm 18.8 SE 4 4 1018.9 - 0.2 - - 10 - - - -
16/06:00pm 19.8 E 5 7 1018.5 - 0.2 - - 10 - - - -
16/05:30pm 20.7 E 8 10 1018.5 - 0.2 - - 10 - - - -
16/05:00pm 21.2 ESE 10 13 1018.3 - 0.2 - - 10 - - - -
16/04:30pm 22.6 E 9 13 1018.0 - 0.2 - - 10 - - - -
16/04:00pm 23.6 E 10 13 1018.0 - 0.2 - - 10 - - - -
16/03:30pm 23.6 E 11 14 1018.1 - 0.2 - - 10 - - - -
16/03:00pm 23.8 E 8 11 1018.1 - 0.2 - - 10 - - - -
16/02:30pm 23.8 E 10 13 1018.1 - 0.2 - - 10 - - - -
16/02:00pm 23.9 E 10 13 1018.3 - 0.2 - - - - - - -
16/12:00pm 23.3 WNW 5 9 1019.8 - 0.0 - - 10 - - - -
16/11:30am 22.6 WNW 7 11 1020.4 - 0.0 - - 10 - - - -
16/11:00am 22.3 WNW 8 11 1020.7 - 0.0 - - 10 - - - -
16/10:30am 21.2 NNW 9 11 1020.7 - 0.0 - - 10 - - - -
16/10:00am 20.0 N 7 10 1020.6 - 0.0 - - 10 - - - -
16/09:30am 18.4 NNW 5 7 1020.9 - 0.0 - - 10 - - - -
16/09:00am 17.0 NNW 6 7 1020.9 - 0.0 - - 10 - - - -
16/08:30am 14.3 NNW 5 7 1020.8 - 0.0 - - 10 - - - -
16/08:00am 12.8 NNW 6 7 1020.7 - 0.0 - - 10 - - - -
16/07:30am 11.4 NNW 5 6 1020.7 - 0.0 - - 10 - - - -
16/07:00am 10.6 NNW 5 6 1020.4 - 0.0 - - 10 - - - -
16/06:30am 10.4 NW 5 6 1020.3 - 0.0 - - 10 - - - -
16/06:00am 10.8 NNW 5 5 1019.7 - 0.0 - - 10 - - - -
16/05:30am 10.8 NW 5 8 1019.9 - 0.0 - - 10 - - - -
16/05:00am 11.0 NW 5 7 1019.8 - 0.0 - - 10 - - - -
16/04:30am 11.3 NW 5 7 1019.9 - 0.0 - - 10 - - - -
16/04:00am 11.0 NNW 5 6 1019.8 - 0.0 - - 10 - - - -
16/03:30am 10.6 WNW 5 6 1020.1 - 0.0 - - 10 - - - -
16/03:00am 11.2 NW 4 5 1020.0 - 0.0 - - 10 - - - -
16/02:30am 11.1 W 6 7 1020.2 - 0.0 - - 10 - - - -
16/02:00am 11.2 WNW 5 5 1020.1 - 0.0 - - 10 - - - -
16/01:30am 11.7 NW 4 5 1020.5 - 0.0 - - 10 - - - -
16/01:00am 12.8 WSW 4 5 1020.4 - 0.0 - - 10 - - - -
16/12:30am 12.9 WSW 5 7 1020.4 - 0.0 - - 10 - - - -
16/12:00am 13.2 WSW 7 8 1020.6 - 0.0 - - 10 - - - -
 
Date/Time
CST
Temp

°C
Wind Pressure Rain
since 9am
mm
Weather Cloud Vis
km
Sea
Height
m
Swell
Dir
 
Speed
knots
Gust
knots
hPa Trend Height
m
Period
s
Dir
15/11:30pm 13.0 W 6 7 1020.8 - 0.0 - - 10 - - - -
15/11:00pm 13.1 CALM 0 0 1020.8 - 0.0 - - 10 - - - -
15/10:30pm 14.0 W 4 6 1021.2 - 0.0 - - 10 - - - -
15/10:00pm 14.8 SW 4 6 1021.4 - 0.0 - - 10 - - - -
15/09:30pm 17.5 S 5 9 1021.3 - 0.0 - - 10 - - - -
15/09:00pm 18.3 S 8 11 1021.2 - 0.0 - - 10 - - - -
15/08:30pm 18.2 S 9 11 1021.0 - 0.0 - - 10 - - - -
15/08:00pm 18.1 S 10 12 1020.9 - 0.0 - - 10 - - - -
15/07:30pm 18.0 S 9 12 1020.6 - 0.0 - - 10 - - - -
15/07:00pm 18.3 S 10 13 1020.4 - 0.0 - - 10 - - - -
15/06:30pm 18.5 S 10 12 1020.2 - 0.0 - - 10 - - - -
15/06:00pm 18.9 S 10 13 1019.9 - 0.0 - - 10 - - - -
15/05:30pm 20.0 S 10 13 1019.9 - 0.0 - - 10 - - - -
15/05:00pm 21.1 S 11 13 1019.9 - 0.0 - - 10 - - - -
15/04:30pm 21.6 S 11 13 1019.8 - 0.0 - - 10 - - - -
15/04:00pm 22.0 S 10 13 1019.8 - 0.0 - - 10 - - - -
15/03:30pm 22.0 S 9 11 1019.9 - 0.0 - - 10 - - - -
15/03:00pm 21.8 S 9 12 1019.8 - 0.0 - - 10 - - - -
15/02:30pm 21.5 S 8 11 1020.0 - 0.0 - - 10 - - - -
15/02:00pm 21.6 S 8 10 1020.2 - 0.0 - - 10 - - - -
15/01:30pm 21.0 SSE 7 8 1020.4 - 0.0 - - 10 - - - -
15/01:00pm 21.1 SSE 6 10 1020.8 - 0.0 - - 10 - - - -
15/12:30pm 20.9 SSE 8 11 1021.3 - 0.0 - - 10 - - - -
15/12:00pm 20.3 SSE 7 10 1021.7 - 0.0 - - 10 - - - -
15/11:30am 19.6 ESE 7 11 1022.2 - 0.0 - - 10 - - - -
15/11:00am 18.8 SSE 7 11 1022.5 - 0.0 - - 10 - - - -
15/10:30am 18.6 ESE 5 8 1022.6 - 0.0 - - 10 - - - -
15/10:00am 18.0 E 6 9 1022.7 - 0.0 - - 10 - - - -
15/09:30am 17.6 E 8 10 1022.6 - 0.0 - - 10 - - - -
15/09:00am 17.2 ESE 8 11 1022.6 - 0.0 - - 10 - - - -
15/08:30am 16.4 SE 10 14 1022.5 - 0.0 - - 10 - - - -
15/08:00am 16.3 SE 9 14 1022.4 - 0.0 - - 10 - - - -
15/07:30am 15.5 SE 8 11 1022.4 - 0.0 - - 10 - - - -
15/07:00am 14.7 SE 6 10 1022.2 - 0.0 - - 10 - - - -
15/06:30am 14.6 SE 7 10 1022.0 - 0.0 - - 10 - - - -
15/06:00am 14.8 SSE 8 11 1021.6 - 0.0 - - 10 - - - -
15/05:30am 14.7 SE 8 12 1021.5 - 0.0 - - 10 - - - -
15/05:00am 15.1 SE 10 13 1021.4 - 0.0 - - 10 - - - -
15/04:30am 15.2 SE 10 14 1021.4 - 0.0 - - 10 - - - -
15/04:00am 15.2 SSE 8 12 1021.5 - 0.0 - - 10 - - - -
15/03:30am 15.3 SSE 8 12 1021.5 - 0.0 - - 10 - - - -
15/03:00am 15.5 SE 11 16 1021.4 - 0.0 - - 10 - - - -
15/02:30am 15.6 SE 10 14 1021.6 - 0.0 - - 10 - - - -
15/02:00am 15.7 SE 10 15 1021.6 - 0.0 - - 10 - - - -
15/01:30am 15.9 SE 10 14 1022.0 - 0.0 - - 10 - - - -
15/01:00am 15.8 SE 9 13 1022.1 - 0.0 - - 10 - - - -
15/12:30am 16.2 SE 9 13 1022.1 - 0.0 - - 10 - - - -
15/12:00am 16.1 SE 6 8 1022.0 - 0.0 - - 10 - - - -
 
Date/Time
CST
Temp

°C
Wind Pressure Rain
since 9am
mm
Weather Cloud Vis
km
Sea
Height
m
Swell
Dir
 
Speed
knots
Gust
knots
hPa Trend Height
m
Period
s
Dir
14/11:30pm 16.7 SSE 8 10 1022.0 - 0.0 - - 10 - - - -
14/11:00pm 16.7 SSE 7 10 1022.2 - 0.0 - - 10 - - - -
14/10:30pm 16.5 SSE 6 7 1022.2 - 0.0 - - 10 - - - -
14/10:00pm 17.1 SSE 6 9 1022.3 - 0.0 - - 10 - - - -
14/09:30pm 17.6 S 8 12 1022.3 - 0.0 - - 10 - - - -
14/09:00pm 17.9 S 11 15 1021.9 - 0.0 - - 10 - - - -
14/08:30pm 18.2 SSE 13 19 1021.8 - 0.0 - - 10 - - - -
14/08:00pm 18.6 SSE 15 20 1021.4 - 0.0 - - 10 - - - -
14/07:30pm 19.0 SSE 13 21 1021.2 - 0.0 - - 10 - - - -
14/07:00pm 19.5 S 13 19 1021.0 - 0.0 - - 10 - - - -
14/06:30pm 19.8 S 13 17 1020.7 - 0.0 - - 10 - - - -
14/06:00pm 19.4 S 13 17 1020.2 - 0.0 - - 10 - - - -
14/05:30pm 20.0 SSW 16 21 1019.9 - 0.0 - - 10 - - - -
14/05:00pm 20.6 SSW 17 25 1019.6 - 0.0 - - 10 - - - -
14/04:30pm 21.1 SSW 16 21 1019.6 - 0.0 - - 10 - - - -
14/04:00pm 21.1 S 17 21 1019.4 - 0.0 - - 10 - - - -
14/03:30pm 21.2 S 14 17 1019.5 - 0.0 - - 10 - - - -
14/03:00pm 20.8 S 14 17 1019.6 - 0.0 - - 10 - - - -
14/02:30pm 21.4 S 13 16 1019.7 - 0.0 - - 10 - - - -
14/02:00pm 20.9 S 11 15 1019.7 - 0.0 - - 10 - - - -
14/01:30pm 19.7 S 10 14 1020.0 - 0.0 - - 10 - - - -
14/01:00pm 19.3 S 10 15 1020.3 - 0.0 - - 10 - - - -
14/12:30pm 19.5 S 8 11 1020.8 - 0.0 - - 10 - - - -
14/12:00pm 18.6 S 9 12 1021.2 - 0.0 - - 10 - - - -
14/11:30am 18.2 S 8 11 1021.7 - 0.0 - - 10 - - - -
14/11:00am 18.1 SSE 8 12 1022.0 - 0.0 - - 10 - - - -
14/10:30am 17.5 S 9 13 1022.3 - 0.0 - Partly cloudy 10 - - - -
14/10:00am 17.0 SSE 8 11 1022.5 - 0.0 - - 10 - - - -
14/09:30am 16.6 SSE 8 10 1022.5 - 0.0 - - 10 - - - -
14/09:04am 16.1 SSE 9 12 1022.3 - 0.0 - Partly cloudy 10 - - - -
14/09:00am 15.9 SSE 9 12 1022.2 - 0.0 - Partly cloudy 10 - - - -
14/08:30am 15.9 SSE 9 11 1022.3 - 0.0 - - 10 - - - -
14/08:20am 15.7 SSE 9 12 1022.2 - 0.0 - Partly cloudy 10 - - - -
14/08:00am 15.4 SE 9 13 1022.0 - 0.0 - Cloudy 10 - - - -
14/07:30am 15.3 S 6 8 1021.7 - 0.0 - Partly cloudy 10 - - - -
14/07:00am 14.4 S 5 6 1021.4 - 0.0 - Partly cloudy 10 - - - -
14/06:51am 14.4 S 5 7 1021.3 - 0.0 - Partly cloudy 10 - - - -
14/06:42am 14.5 S 6 8 1021.2 - 0.0 - Partly cloudy 10 - - - -
14/06:30am 14.6 S 6 8 1021.2 - 0.0 - Partly cloudy 10 - - - -
14/06:00am 14.9 S 6 8 1021.0 - 0.0 - Partly cloudy 10 - - - -
14/05:31am 14.9 SSE 6 8 1021.0 - 0.0 - Partly cloudy 10 - - - -
14/05:30am 14.9 SSE 6 8 1021.0 - 0.0 - Partly cloudy 10 - - - -
14/05:00am 14.0 S 5 6 1021.0 - 0.0 - Partly cloudy 10 - - - -
14/04:30am 14.4 S 5 6 1020.9 - 0.0 - - 10 - - - -
14/04:00am 15.4 S 5 7 1020.9 - 0.0 - Partly cloudy 10 - - - -
14/03:30am 15.9 SSE 7 9 1020.7 - 0.0 - Cloudy 10 - - - -
14/03:00am 16.1 SSE 7 12 1020.7 - 0.0 - Mostly cloudy 10 - - - -
14/02:30am 16.3 SSE 7 11 1020.9 - 0.0 - Cloudy 10 - - - -
14/02:00am 16.4 SSE 7 12 1021.1 - 0.0 - Cloudy 10 - - - -
14/01:30am 16.7 SSE 9 11 1021.1 - 0.0 - Cloudy 10 - - - -
14/01:00am 16.8 SSE 10 15 1021.1 - 0.0 - Cloudy 10 - - - -
14/12:30am 16.8 SSE 11 17 1020.8 - 0.0 - Cloudy 10 - - - -

Other Formats:

Comma delimited format used in spreadsheet applications
http://www.bom.gov.au/fwo/IDS60701/IDS60701.95664.axf

JavaScript Object Notation format (JSON) in row-major order
http://www.bom.gov.au/fwo/IDS60701/IDS60701.95664.json